createdAt,value
2022-10-04T00:03:47.368Z,11.45
2022-10-04T00:08:54.509Z,11.41
2022-10-04T00:13:59.447Z,11.62
2022-10-04T00:19:26.733Z,11.91
2022-10-04T00:24:31.366Z,11.80
2022-10-04T00:29:38.889Z,11.93
2022-10-04T00:34:51.190Z,11.73
2022-10-04T00:39:59.561Z,11.74
2022-10-04T00:45:04.669Z,11.62
2022-10-04T00:50:24.121Z,11.76
2022-10-04T00:55:35.458Z,11.84
2022-10-04T01:00:38.711Z,11.65
2022-10-04T01:05:44.973Z,11.55
2022-10-04T01:11:13.457Z,11.69
2022-10-04T01:16:20.487Z,11.52
2022-10-04T01:21:32.232Z,11.36
2022-10-04T01:26:36.409Z,11.15
2022-10-04T01:31:45.480Z,11.01
2022-10-04T01:36:49.993Z,10.93
2022-10-04T01:42:03.445Z,10.87
2022-10-04T01:47:09.993Z,10.90
2022-10-04T01:52:18.478Z,10.93
2022-10-04T01:57:25.458Z,10.98
2022-10-04T02:02:46.708Z,11.08
2022-10-04T02:07:49.826Z,10.90
2022-10-04T02:12:54.757Z,10.83
2022-10-04T02:17:57.463Z,10.84
2022-10-04T02:23:03.331Z,10.79
2022-10-04T02:28:10.991Z,10.84
2022-10-04T02:33:13.477Z,10.98
2022-10-04T02:38:23.926Z,11.01
2022-10-04T02:43:29.266Z,11.27
2022-10-04T02:48:54.437Z,11.44
2022-10-04T02:54:12.647Z,11.27
2022-10-04T02:59:17.002Z,11.46
2022-10-04T03:04:21.423Z,11.52
2022-10-04T03:09:29.474Z,11.70
2022-10-04T03:14:32.641Z,11.62
2022-10-04T03:19:37.334Z,11.65
2022-10-04T03:24:54.494Z,11.34
2022-10-04T03:29:59.512Z,11.22
2022-10-04T03:35:05.108Z,11.24
2022-10-04T03:40:10.238Z,11.15
2022-10-04T03:45:15.879Z,11.15
2022-10-04T03:50:27.602Z,11.17
2022-10-04T03:55:35.370Z,11.06
2022-10-04T04:00:43.064Z,11.11
2022-10-04T04:05:53.042Z,11.06
2022-10-04T04:10:57.156Z,11.03
2022-10-04T04:16:01.842Z,11.06
2022-10-04T04:21:06.314Z,11.14
2022-10-04T04:26:35.907Z,11.25
2022-10-04T04:31:44.884Z,11.39
2022-10-04T04:36:47.407Z,11.29
2022-10-04T04:41:50.921Z,11.25
2022-10-04T04:47:00.554Z,11.24
2022-10-04T04:52:03.838Z,11.31
2022-10-04T04:57:06.403Z,11.54
2022-10-04T05:02:30.815Z,11.55
2022-10-04T05:07:33.193Z,11.56
2022-10-04T05:12:35.484Z,11.73
2022-10-04T05:17:37.804Z,11.71
2022-10-04T05:22:42.390Z,11.63
2022-10-04T05:27:45.390Z,11.71
2022-10-04T05:33:06.752Z,11.89
2022-10-04T05:38:34.023Z,11.83
2022-10-04T05:43:38.681Z,11.93
2022-10-04T05:48:43.327Z,11.88
2022-10-04T05:53:46.573Z,12.19
2022-10-04T05:59:10.473Z,12.11
2022-10-04T06:04:57.532Z,12.23
2022-10-04T06:10:12.656Z,12.08
2022-10-04T06:15:46.028Z,12.03
2022-10-04T06:21:13.352Z,11.92
2022-10-04T06:26:25.660Z,12.10
2022-10-04T06:31:36.910Z,12.42
2022-10-04T06:36:57.325Z,12.50
2022-10-04T06:42:08.449Z,12.62
2022-10-04T06:47:24.657Z,12.78
2022-10-04T06:52:30.992Z,12.85
2022-10-04T06:58:08.702Z,12.93
2022-10-04T07:03:15.491Z,13.21
2022-10-04T07:08:36.817Z,13.48
2022-10-04T07:13:49.286Z,13.54
2022-10-04T07:19:29.170Z,13.87
2022-10-04T07:24:51.476Z,13.70
2022-10-04T07:29:55.987Z,13.73
2022-10-04T07:35:00.401Z,13.80
2022-10-04T07:40:18.021Z,13.90
2022-10-04T07:45:26.805Z,14.37
2022-10-04T07:50:38.847Z,14.04
2022-10-04T07:56:00.050Z,14.41
2022-10-04T08:01:10.256Z,14.45
2022-10-04T08:06:31.185Z,14.46
2022-10-04T08:12:33.133Z,14.85
2022-10-04T08:18:00.060Z,14.89
2022-10-04T08:23:07.441Z,14.68
2022-10-04T08:28:43.211Z,14.64
2022-10-04T08:34:23.605Z,14.71
2022-10-04T08:39:44.158Z,14.73
2022-10-04T08:45:02.210Z,15.07
2022-10-04T08:50:38.101Z,15.50
2022-10-04T08:55:53.816Z,15.36
2022-10-04T09:01:07.218Z,15.39
2022-10-04T09:06:28.083Z,15.57
2022-10-04T09:11:55.340Z,15.78
2022-10-04T09:17:22.461Z,15.83
2022-10-04T09:22:47.218Z,15.78
2022-10-04T09:28:03.555Z,16.13
2022-10-04T09:33:43.068Z,16.16
2022-10-04T09:39:25.579Z,16.17
2022-10-04T09:44:34.009Z,16.13
2022-10-04T09:49:45.460Z,16.05
2022-10-04T09:55:22.866Z,16.70
2022-10-04T10:00:36.063Z,17.16
2022-10-04T10:06:01.865Z,16.52
2022-10-04T10:11:41.153Z,15.85
2022-10-04T10:17:00.222Z,15.94
2022-10-04T10:22:09.350Z,16.33
2022-10-04T10:27:26.281Z,16.41
2022-10-04T10:32:40.843Z,17.04
2022-10-04T10:38:02.307Z,17.03
2022-10-04T10:43:33.604Z,16.62
2022-10-04T10:48:53.355Z,16.58
2022-10-04T10:54:16.175Z,16.86
2022-10-04T10:59:50.634Z,16.86
2022-10-04T11:05:30.336Z,16.75
2022-10-04T11:11:00.008Z,16.73
2022-10-04T11:16:24.146Z,17.16
2022-10-04T11:21:45.217Z,17.32
2022-10-04T11:27:06.053Z,16.93
2022-10-04T11:32:31.417Z,16.72
2022-10-04T11:37:57.720Z,16.88
2022-10-04T11:43:04.853Z,16.79
2022-10-04T11:48:20.462Z,16.66
2022-10-04T11:53:33.668Z,17.54
2022-10-04T11:59:11.227Z,17.82
2022-10-04T12:04:44.854Z,17.49
2022-10-04T12:10:01.116Z,17.26
2022-10-04T12:15:41.294Z,17.96
2022-10-04T12:21:08.076Z,18.08
2022-10-04T12:26:19.303Z,17.88
2022-10-04T12:31:29.188Z,17.66
2022-10-04T12:36:42.086Z,18.06
2022-10-04T12:41:47.285Z,17.44
2022-10-04T12:46:55.354Z,16.99
2022-10-04T12:52:16.355Z,16.76
2022-10-04T12:57:27.709Z,16.97
2022-10-04T13:03:03.850Z,17.35
2022-10-04T13:08:27.753Z,17.30
2022-10-04T13:13:33.278Z,16.97
2022-10-04T13:18:50.573Z,17.25
2022-10-04T13:24:11.652Z,18.02
2022-10-04T13:29:33.204Z,18.36
2022-10-04T13:34:50.423Z,18.84
2022-10-04T13:39:55.515Z,19.11
2022-10-04T13:45:06.746Z,19.27
2022-10-04T13:50:27.378Z,19.18
2022-10-04T13:56:40.181Z,19.14
2022-10-04T14:02:03.866Z,19.21
2022-10-04T14:07:32.534Z,18.63
2022-10-04T14:12:49.891Z,18.30
2022-10-04T14:18:10.524Z,18.91
2022-10-04T14:23:35.243Z,19.11
2022-10-04T14:29:09.881Z,18.93
2022-10-04T14:34:12.150Z,19.26
2022-10-04T14:39:41.784Z,19.14
2022-10-04T14:45:01.496Z,19.02
2022-10-04T14:50:23.962Z,18.98
2022-10-04T14:55:27.168Z,18.37
2022-10-04T15:01:04.672Z,17.34
2022-10-04T15:06:13.814Z,17.17
2022-10-04T15:11:37.136Z,17.42
2022-10-04T15:16:42.828Z,17.64
2022-10-04T15:21:48.153Z,17.85
2022-10-04T15:27:27.381Z,17.79
2022-10-04T15:32:43.326Z,17.55
2022-10-04T15:38:20.136Z,17.22
2022-10-04T15:43:29.709Z,16.58
2022-10-04T15:48:59.722Z,16.17
2022-10-04T15:54:30.177Z,15.78
2022-10-04T15:59:47.532Z,15.54
2022-10-04T16:04:49.804Z,15.27
2022-10-04T16:10:45.873Z,14.95
2022-10-04T16:16:16.989Z,14.68
2022-10-04T16:21:35.900Z,14.32
2022-10-04T16:27:08.915Z,13.87
2022-10-04T16:32:26.042Z,13.50
2022-10-04T16:37:36.992Z,13.32
2022-10-04T16:42:45.191Z,13.63
2022-10-04T16:48:05.811Z,13.25
2022-10-04T16:53:32.144Z,13.07
2022-10-04T16:58:38.708Z,12.81
2022-10-04T17:03:48.850Z,12.56
2022-10-04T17:09:08.748Z,12.54
2022-10-04T17:14:33.341Z,12.45
2022-10-04T17:19:52.749Z,12.32
2022-10-04T17:25:19.471Z,12.20
2022-10-04T17:30:24.119Z,12.03
2022-10-04T17:35:48.077Z,12.07
2022-10-04T17:40:56.016Z,12.00
2022-10-04T17:46:16.261Z,12.01
2022-10-04T17:51:39.879Z,11.88
2022-10-04T17:57:09.505Z,11.87
2022-10-04T18:02:18.440Z,11.78
2022-10-04T18:07:37.890Z,11.84
2022-10-04T18:12:56.204Z,11.81
2022-10-04T18:18:12.538Z,11.66
2022-10-04T18:23:35.781Z,11.58
2022-10-04T18:28:38.380Z,11.53
2022-10-04T18:33:40.703Z,11.51
2022-10-04T18:39:14.460Z,11.56
2022-10-04T18:44:18.148Z,11.51
2022-10-04T18:49:51.474Z,11.56
2022-10-04T18:54:57.071Z,11.46
2022-10-04T19:00:30.550Z,11.29
2022-10-04T19:05:33.064Z,11.18
2022-10-04T19:10:40.670Z,11.02
2022-10-04T19:16:05.443Z,10.88
2022-10-04T19:21:19.161Z,10.99
2022-10-04T19:26:33.489Z,10.90
2022-10-04T19:32:02.951Z,11.04
2022-10-04T19:37:26.901Z,11.14
2022-10-04T19:42:38.575Z,11.27
2022-10-04T19:47:51.575Z,11.44
2022-10-04T19:52:59.639Z,11.62
2022-10-04T19:58:13.173Z,11.91
2022-10-04T20:03:15.510Z,11.97
2022-10-04T20:09:00.728Z,11.69
2022-10-04T20:14:07.789Z,11.91
2022-10-04T20:19:19.087Z,12.09
2022-10-04T20:24:36.394Z,12.39
2022-10-04T20:29:38.740Z,12.51
2022-10-04T20:34:42.088Z,12.61
2022-10-04T20:39:44.381Z,12.54
2022-10-04T20:44:55.597Z,12.57
2022-10-04T20:50:00.065Z,12.78
2022-10-04T20:55:03.019Z,12.67
2022-10-04T21:00:06.018Z,12.65
2022-10-04T21:05:23.602Z,12.58
2022-10-04T21:10:28.674Z,12.47
2022-10-04T21:15:31.017Z,12.34
2022-10-04T21:20:51.664Z,12.20
2022-10-04T21:26:23.245Z,11.93
2022-10-04T21:31:25.985Z,11.82
2022-10-04T21:36:28.358Z,11.54
2022-10-04T21:41:30.681Z,11.33
2022-10-04T21:46:32.968Z,11.40
2022-10-04T21:51:40.141Z,11.45
2022-10-04T21:56:42.452Z,11.33
2022-10-04T22:01:44.795Z,11.28
2022-10-04T22:06:48.509Z,11.41
2022-10-04T22:11:51.113Z,11.54
2022-10-04T22:16:53.485Z,11.49
2022-10-04T22:21:55.967Z,11.64
2022-10-04T22:26:58.338Z,11.63
2022-10-04T22:32:00.683Z,11.46
2022-10-04T22:37:03.337Z,11.34
2022-10-04T22:42:05.874Z,11.38
2022-10-04T22:47:12.652Z,11.29
2022-10-04T22:52:19.276Z,11.23
2022-10-04T22:57:21.830Z,11.24
2022-10-04T23:02:29.630Z,11.32
2022-10-04T23:07:37.425Z,11.29
2022-10-04T23:12:41.043Z,11.48
2022-10-04T23:17:43.388Z,11.49
2022-10-04T23:22:50.334Z,11.57
2022-10-04T23:27:52.934Z,11.66
2022-10-04T23:32:59.094Z,11.88
2022-10-04T23:38:07.105Z,11.85
2022-10-04T23:43:15.485Z,11.68
2022-10-04T23:48:22.635Z,11.62
2022-10-04T23:53:29.141Z,11.74
2022-10-04T23:58:35.167Z,11.50
